createdAt,value
2023-05-21T00:01:45.573Z,3.08
2023-05-21T00:06:04.107Z,4.10
2023-05-21T00:10:22.089Z,3.58
2023-05-21T00:14:42.124Z,3.85
2023-05-21T00:19:00.040Z,3.20
2023-05-21T00:23:18.906Z,3.42
2023-05-21T00:27:38.004Z,3.72
2023-05-21T00:31:58.600Z,3.58
2023-05-21T00:36:17.138Z,3.33
2023-05-21T00:40:37.703Z,3.50
2023-05-21T00:44:55.798Z,3.55
2023-05-21T00:49:15.160Z,3.15
2023-05-21T00:53:36.103Z,3.83
2023-05-21T00:57:54.976Z,3.22
2023-05-21T01:02:14.452Z,3.55
2023-05-21T01:06:35.526Z,4.03
2023-05-21T01:10:55.661Z,3.72
2023-05-21T01:15:15.082Z,3.88
2023-05-21T01:19:37.512Z,3.67
2023-05-21T01:23:55.901Z,3.28
2023-05-21T01:28:15.420Z,3.33
2023-05-21T01:32:56.884Z,3.70
2023-05-21T01:37:33.599Z,3.53
2023-05-21T01:41:55.449Z,3.42
2023-05-21T01:46:17.928Z,3.50
2023-05-21T01:50:41.419Z,3.20
2023-05-21T01:55:00.410Z,3.20
2023-05-21T01:59:20.053Z,3.25
2023-05-21T02:03:38.716Z,3.30
2023-05-21T02:07:57.344Z,3.42
2023-05-21T02:12:15.031Z,3.00
2023-05-21T02:16:33.668Z,3.25
2023-05-21T02:20:51.341Z,3.10
2023-05-21T02:25:11.446Z,2.92
2023-05-21T02:29:30.472Z,3.08
2023-05-21T02:33:49.139Z,3.53
2023-05-21T02:38:09.361Z,3.10
2023-05-21T02:42:27.463Z,2.47
2023-05-21T02:46:45.488Z,3.30
2023-05-21T02:51:05.359Z,3.08
2023-05-21T02:55:23.698Z,2.85
2023-05-21T02:59:41.198Z,3.28
2023-05-21T03:03:59.759Z,2.95
2023-05-21T03:08:17.929Z,2.85
2023-05-21T03:12:35.451Z,2.88
2023-05-21T03:16:53.540Z,3.10
2023-05-21T03:21:13.844Z,3.03
2023-05-21T03:25:33.360Z,2.97
2023-05-21T03:29:52.098Z,3.08
2023-05-21T03:34:09.948Z,2.65
2023-05-21T03:38:27.532Z,3.15
2023-05-21T03:42:45.573Z,2.45
2023-05-21T03:51:22.305Z,2.65
2023-05-21T03:55:41.478Z,2.67
2023-05-21T04:00:02.874Z,2.97
2023-05-21T04:04:21.523Z,2.50
2023-05-21T04:08:40.374Z,2.70
2023-05-21T04:12:58.470Z,2.95
2023-05-21T04:21:35.124Z,2.45
2023-05-21T04:25:53.692Z,2.83
2023-05-21T04:30:12.097Z,1.85
2023-05-21T04:34:31.021Z,2.45
2023-05-21T04:38:49.181Z,2.17
2023-05-21T04:47:25.606Z,1.48
2023-05-21T04:51:43.831Z,2.60
2023-05-21T04:56:01.736Z,2.08
2023-05-21T05:00:19.914Z,2.15
2023-05-21T05:04:39.413Z,2.38
2023-05-21T05:08:57.778Z,1.80
2023-05-21T05:13:15.349Z,1.90
2023-05-21T05:17:36.231Z,2.10
2023-05-21T05:21:55.658Z,1.98
2023-05-21T05:26:13.214Z,2.13
2023-05-21T05:30:32.225Z,2.05
2023-05-21T05:34:50.056Z,2.10
2023-05-21T05:39:08.184Z,2.25
2023-05-21T05:47:45.618Z,1.70
2023-05-21T05:52:05.707Z,3.00
2023-05-21T05:56:23.775Z,1.98
2023-05-21T06:04:59.457Z,1.75
2023-05-21T06:09:17.037Z,2.10
2023-05-21T06:13:35.032Z,2.10
2023-05-21T06:17:52.639Z,1.80
2023-05-21T06:22:10.723Z,2.10
2023-05-21T06:26:30.068Z,2.03
2023-05-21T06:30:49.487Z,2.22
2023-05-21T06:35:07.437Z,2.00
2023-05-21T06:39:25.656Z,2.13
2023-05-21T06:43:43.226Z,2.00
2023-05-21T06:48:01.991Z,1.88
2023-05-21T06:52:20.084Z,1.80
2023-05-21T06:56:37.702Z,2.03
2023-05-21T07:00:55.302Z,1.90
2023-05-21T07:05:13.367Z,1.88
2023-05-21T07:13:49.168Z,2.03
2023-05-21T07:18:08.270Z,1.70
2023-05-21T07:22:27.954Z,2.20
2023-05-21T07:26:48.066Z,1.55
2023-05-21T07:31:06.068Z,1.92
2023-05-21T07:35:24.322Z,1.90
2023-05-21T07:39:42.370Z,1.80
2023-05-21T07:48:23.685Z,1.55
2023-05-21T07:52:41.321Z,1.60
2023-05-21T07:56:59.951Z,1.60
2023-05-21T08:01:17.540Z,1.88
2023-05-21T08:05:35.753Z,1.50
2023-05-21T08:09:54.870Z,1.38
2023-05-21T08:14:12.466Z,1.60
2023-05-21T08:18:30.687Z,1.38
2023-05-21T08:22:48.553Z,1.30
2023-05-21T08:27:06.252Z,1.42
2023-05-21T08:31:24.043Z,1.70
2023-05-21T08:35:41.802Z,1.63
2023-05-21T08:39:59.909Z,1.90
2023-05-21T08:44:22.913Z,1.50
2023-05-21T08:48:40.922Z,1.67
2023-05-21T08:53:00.568Z,1.70
2023-05-21T08:57:21.329Z,1.08
2023-05-21T09:01:42.863Z,2.17
2023-05-21T09:06:00.891Z,1.55
2023-05-21T09:10:22.628Z,1.42
2023-05-21T09:14:42.652Z,0.80
2023-05-21T09:19:03.010Z,1.25
2023-05-21T09:23:22.807Z,1.77
2023-05-21T09:27:41.545Z,1.20
2023-05-21T09:32:05.990Z,1.67
2023-05-21T09:36:25.778Z,1.67
2023-05-21T09:40:48.850Z,1.50
2023-05-21T09:45:11.349Z,1.60
2023-05-21T09:49:29.880Z,1.58
2023-05-21T09:53:55.920Z,1.63
2023-05-21T09:58:14.672Z,1.17
2023-05-21T10:02:34.143Z,1.45
2023-05-21T10:06:53.033Z,1.50
2023-05-21T10:11:13.037Z,1.48
2023-05-21T10:15:38.884Z,1.20
2023-05-21T10:19:58.182Z,1.27
2023-05-21T10:24:17.085Z,1.50
2023-05-21T10:28:39.239Z,1.52
2023-05-21T10:32:58.220Z,0.60
2023-05-21T10:37:17.391Z,1.45
2023-05-21T10:41:53.754Z,1.77
2023-05-21T10:46:54.866Z,1.08
2023-05-21T10:51:26.845Z,1.50
2023-05-21T10:56:29.635Z,1.20
2023-05-21T11:00:47.849Z,1.50
2023-05-21T11:05:08.203Z,1.58
2023-05-21T11:09:27.848Z,1.60
2023-05-21T11:13:50.685Z,1.40
2023-05-21T11:18:10.375Z,1.60
2023-05-21T11:22:28.441Z,1.33
2023-05-21T11:26:49.066Z,1.15
2023-05-21T11:31:27.820Z,1.30
2023-05-21T11:35:46.496Z,1.50
2023-05-21T11:40:26.439Z,1.38
2023-05-21T11:44:48.734Z,1.38
2023-05-21T11:49:06.938Z,1.20
2023-05-21T11:53:30.656Z,1.20
2023-05-21T11:57:54.262Z,1.27
2023-05-21T12:02:17.146Z,1.35
2023-05-21T12:06:34.877Z,1.02
2023-05-21T12:11:00.564Z,0.88
2023-05-21T12:15:18.649Z,1.55
2023-05-21T12:19:38.048Z,1.33
2023-05-21T12:23:56.519Z,1.13
2023-05-21T12:28:14.370Z,1.38
2023-05-21T12:32:33.336Z,1.63
2023-05-21T12:36:52.755Z,1.02
2023-05-21T12:41:13.754Z,1.30
2023-05-21T12:45:33.158Z,1.15
2023-05-21T12:49:59.637Z,1.23
2023-05-21T12:54:18.300Z,1.17
2023-05-21T12:58:35.870Z,1.55
2023-05-21T13:02:54.611Z,1.13
2023-05-21T13:07:12.203Z,1.40
2023-05-21T13:11:30.092Z,1.50
2023-05-21T13:15:47.803Z,1.17
2023-05-21T13:20:13.430Z,1.17
2023-05-21T13:24:31.555Z,1.08
2023-05-21T13:28:49.152Z,1.08
2023-05-21T13:33:08.613Z,1.30
2023-05-21T13:37:26.358Z,1.40
2023-05-21T13:41:44.748Z,1.27
2023-05-21T13:46:03.156Z,1.17
2023-05-21T13:50:21.226Z,1.17
2023-05-21T13:54:38.806Z,1.25
2023-05-21T13:58:56.668Z,1.23
2023-05-21T14:03:13.657Z,1.65
2023-05-21T14:07:32.707Z,0.93
2023-05-21T14:11:51.048Z,1.58
2023-05-21T14:16:09.154Z,1.30
2023-05-21T14:20:26.720Z,1.08
2023-05-21T14:24:45.829Z,1.40
2023-05-21T14:29:03.412Z,1.40
2023-05-21T14:33:22.013Z,0.88
2023-05-21T14:37:39.763Z,1.52
2023-05-21T14:41:59.210Z,1.45
2023-05-21T14:46:16.986Z,1.63
2023-05-21T14:50:36.709Z,1.70
2023-05-21T14:54:54.678Z,1.20
2023-05-21T15:03:31.102Z,1.13
2023-05-21T15:07:48.997Z,1.60
2023-05-21T15:12:07.660Z,1.23
2023-05-21T15:16:25.447Z,1.30
2023-05-21T15:25:01.759Z,1.35
2023-05-21T15:29:20.890Z,1.10
2023-05-21T15:33:38.623Z,1.23
2023-05-21T15:37:56.267Z,1.45
2023-05-21T15:42:15.191Z,1.27
2023-05-21T15:46:33.166Z,1.73
2023-05-21T15:50:50.938Z,1.35
2023-05-21T15:55:09.455Z,1.10
2023-05-21T15:59:28.448Z,1.02
2023-05-21T16:03:46.786Z,1.10
2023-05-21T16:08:05.440Z,1.25
2023-05-21T16:12:23.309Z,1.40
2023-05-21T16:21:00.257Z,1.33
2023-05-21T16:25:20.587Z,0.88
2023-05-21T16:29:40.988Z,1.20
2023-05-21T16:33:58.785Z,1.02
2023-05-21T16:38:17.298Z,1.10
2023-05-21T16:42:40.055Z,1.33
2023-05-21T16:46:58.264Z,1.20
2023-05-21T16:51:16.650Z,1.38
2023-05-21T16:55:36.610Z,1.40
2023-05-21T16:59:54.468Z,1.13
2023-05-21T17:04:12.434Z,1.15
2023-05-21T17:08:30.916Z,1.00
2023-05-21T17:12:48.673Z,1.15
2023-05-21T17:17:10.557Z,1.05
2023-05-21T17:21:28.144Z,1.60
2023-05-21T17:25:46.594Z,1.08
2023-05-21T17:30:10.248Z,1.23
2023-05-21T17:34:35.822Z,1.13
2023-05-21T17:38:54.899Z,1.30
2023-05-21T17:43:12.838Z,2.25
2023-05-21T17:47:31.173Z,2.60
2023-05-21T17:51:50.952Z,3.08
2023-05-21T17:56:11.599Z,1.90
2023-05-21T18:00:35.446Z,1.80
2023-05-21T18:04:53.379Z,1.77
2023-05-21T18:09:14.445Z,2.53
2023-05-21T18:13:35.593Z,1.67
2023-05-21T18:17:55.993Z,1.23
2023-05-21T18:22:14.472Z,1.67
2023-05-21T18:26:32.182Z,2.50
2023-05-21T18:30:50.091Z,2.10
2023-05-21T18:39:32.254Z,1.58
2023-05-21T18:43:52.963Z,1.50
2023-05-21T18:48:12.059Z,1.00
2023-05-21T18:52:41.840Z,1.30
2023-05-21T18:57:00.993Z,1.27
2023-05-21T19:01:18.713Z,1.38
2023-05-21T19:05:38.285Z,1.05
2023-05-21T19:09:56.442Z,1.33
2023-05-21T19:18:33.027Z,0.93
2023-05-21T19:22:51.256Z,1.27
2023-05-21T19:27:12.720Z,1.33
2023-05-21T19:31:34.832Z,1.38
2023-05-21T19:35:53.546Z,1.38
2023-05-21T19:40:12.164Z,1.48
2023-05-21T19:44:30.549Z,0.98
2023-05-21T19:48:49.154Z,1.55
2023-05-21T19:53:08.464Z,1.45
2023-05-21T19:57:26.544Z,1.77
2023-05-21T20:01:45.702Z,1.38
2023-05-21T20:06:03.925Z,1.45
2023-05-21T20:10:22.025Z,1.15
2023-05-21T20:18:58.563Z,1.20
2023-05-21T20:23:16.941Z,1.30
2023-05-21T20:27:39.103Z,1.40
2023-05-21T20:31:57.029Z,1.35
2023-05-21T20:40:33.163Z,1.90
2023-05-21T20:44:53.066Z,1.58
2023-05-21T20:49:10.762Z,0.93
2023-05-21T20:53:28.462Z,1.63
2023-05-21T20:57:46.477Z,1.40
2023-05-21T21:06:26.264Z,1.40
2023-05-21T21:10:48.516Z,1.90
2023-05-21T21:15:07.986Z,0.98
2023-05-21T21:19:26.148Z,1.20
2023-05-21T21:23:43.925Z,1.38
2023-05-21T21:28:02.359Z,1.02
2023-05-21T21:32:20.581Z,1.40
2023-05-21T21:36:39.951Z,1.20
2023-05-21T21:40:57.569Z,1.48
2023-05-21T21:45:16.884Z,0.88
2023-05-21T21:49:34.596Z,1.10
2023-05-21T21:53:52.981Z,1.27
2023-05-21T21:58:11.260Z,1.05
2023-05-21T22:02:28.817Z,1.08
2023-05-21T22:06:47.420Z,1.20
2023-05-21T22:11:06.771Z,1.40
2023-05-21T22:15:26.314Z,1.00
2023-05-21T22:19:44.257Z,1.60
2023-05-21T22:24:02.530Z,1.40
2023-05-21T22:28:23.350Z,1.30
2023-05-21T22:32:41.232Z,1.40
2023-05-21T22:36:59.438Z,1.20
2023-05-21T22:41:17.152Z,1.08
2023-05-21T22:49:56.092Z,1.30
2023-05-21T22:54:14.994Z,1.23
2023-05-21T22:58:32.596Z,1.35
2023-05-21T23:02:53.846Z,1.48
2023-05-21T23:07:13.147Z,1.85
2023-05-21T23:11:31.171Z,1.50
2023-05-21T23:20:11.463Z,1.30
2023-05-21T23:24:30.882Z,1.42
2023-05-21T23:28:48.895Z,1.10
2023-05-21T23:33:08.535Z,1.50
2023-05-21T23:37:27.047Z,1.50
2023-05-21T23:41:45.273Z,1.48
2023-05-21T23:46:03.455Z,1.33
2023-05-21T23:50:22.178Z,1.40
2023-05-21T23:54:39.774Z,1.63
2023-05-21T23:58:58.094Z,1.75
